• Join FlightAware (Why Join?)
  • Login
  • US Flag GB Flag 
04:39 EDT


 

Airport Tracker/Info


-or-


 

Live Flight TrackerFlight Track Log ✈ CPT8773 ✈ 20-Jun-2013 ✈ KCPR - KCOD

Flight Track Log - Related Links

Times and Time Zones

All times are in EDT time to prevent confusion due to time zone crossing. See the CPT8773 flight status page for this flight to view local times or setup timezone preferences in your user account.

Time Position Orientation Groundspeed Altitude Reporting Facility
EDT Latitude Longitude Course Direction KTS MPH feet Rate Location/Type
09:09 42.9667 -106.5047 308° West 130 150 7,200  Level Salt Lake Center
09:10 42.9994 -106.5064 358° North 127 146 7,800 660 Climbing Denver Center
09:11 43.0378 -106.5122 354° North 126 145 8,600 720 Climbing Denver Center
09:12 43.0697 -106.5133 359° North 123 142 9,300 600 Climbing Denver Center
09:13 43.0993 -106.2946 308° West  Level FlightAware Approximate
09:13 43.1022 -106.5172 355° North 123 142 9,900  Level Denver Center
09:14 43.1254 -106.3401 308° West  Level FlightAware Approximate
09:14 43.1436 -106.5175 360° North 126 145 10,400  Level Denver Center
09:15 43.1819 -106.5156 North 132 152 11,000 540 Climbing Denver Center
09:16 43.2192 -106.5142 North 137 158 11,600 480 Climbing Denver Center
09:17 43.2428 -106.5542 309° West 124 143 12,000 180 Climbing Denver Center
09:18 43.2625 -106.5947 304° West 129 148 12,000  Level Denver Center
09:19 43.2869 -106.6461 303° West 138 159 12,000  Level Denver Center
09:20 43.3111 -106.6878 309° West 142 163 12,000  Level Denver Center
09:21 43.3322 -106.7278 306° West 139 160 12,000  Level Denver Center
09:22 43.3592 -106.7767 307° West 141 162 12,000  Level Denver Center
09:23 43.3817 -106.8192 306° West 143 165 12,000  Level Denver Center
09:24 43.4111 -106.8761 305° West 143 165 12,000  Level Denver Center
09:25 43.4331 -106.9186 305° West 143 165 12,000  Level Denver Center
09:26 43.4558 -106.9628 305° West 144 166 12,000  Level Denver Center
09:27 43.4825 -107.0136 306° West 146 168 12,000  Level Denver Center
09:28 43.5056 -107.0550 308° West 144 166 12,000  Level Denver Center
09:29 43.5314 -107.1081 304° West 147 169 12,000  Level Denver Center
09:30 43.5472 -107.1375 307° West 146 168 12,000  Level Salt Lake Center
09:31 43.5703 -107.1825 305° West 148 170 12,000  Level Salt Lake Center
09:32 43.5989 -107.2328 308° West 147 169 12,000  Level Salt Lake Center
09:34 43.6283 -107.2910 305° West  Level FlightAware Approximate
09:41 43.8049 -107.6269 308° West  Level FlightAware Approximate
09:42 43.8312 -107.6738 308° West  Level FlightAware Approximate
09:43 43.8575 -107.7206 308° West  Level FlightAware Approximate
09:44 43.8838 -107.7676 304° West  Level FlightAware Approximate
09:45 43.9078 -107.8168 304° West  Level FlightAware Approximate
09:46 43.9319 -107.8660 304° West  Level FlightAware Approximate
09:47 43.9559 -107.9153 304° West  Level FlightAware Approximate
09:48 43.9799 -107.9646 304° West  Level FlightAware Approximate
09:49 44.0038 -108.0139 304° West  Level FlightAware Approximate
09:50 44.0278 -108.0633 304° West  Level FlightAware Approximate
09:51 44.0517 -108.1128 304° West  Level FlightAware Approximate
09:52 44.0756 -108.1622 304° West  Level FlightAware Approximate
09:53 44.0995 -108.2117 304° West  Level FlightAware Approximate
09:54 44.1234 -108.2613 304° West  Level FlightAware Approximate
09:55 44.1472 -108.3109 304° West  Level FlightAware Approximate
09:56 44.1743 -108.3571 310° West  Level FlightAware Approximate
09:57 44.2018 -108.4029 310° West  Level FlightAware Approximate
09:58 44.2293 -108.4488 310° West  Level FlightAware Approximate
09:59 44.2561 -108.4954 305° West  Level FlightAware Approximate
10:00 44.2806 -108.5444 305° West  Level FlightAware Approximate
10:01 44.3052 -108.5935 305° West  Level FlightAware Approximate
10:02 44.3297 -108.6426 305° West  Level FlightAware Approximate
10:03 44.3540 -108.6919 303° West  Level FlightAware Approximate
10:04 44.3775 -108.7420 303° West  Level FlightAware Approximate
10:05 44.4009 -108.7922 303° West  Level FlightAware Approximate
10:06 44.4239 -108.8414 303° West  Level FlightAware Approximate
10:07 44.4468 -108.8905 303° West  Level FlightAware Approximate
10:08 44.4702 -108.9392 310° West  Level FlightAware Approximate
10:09 44.4972 -108.9842 310° West  Level FlightAware Approximate
10:10 44.5167 -109.0167 310° West  Level FlightAware Approximate
10:11 44.5202 -109.0238 310° West  Level Estimated
10:12 44.5167 -109.0167 310° West  Level FlightAware Approximate
10:13 44.5202 -109.0238 310° West  Level Estimated
10:14 44.5167 -109.0167 310° West  Level FlightAware Approximate
10:15 44.5202 -109.0238 310° West  Level Estimated
10:16 44.5167 -109.0167 310° West  Level FlightAware Approximate
10:17 44.5202 -109.0238 310° West  Level Estimated
10:18 44.5167 -109.0167 310° West  Level FlightAware Approximate
10:19 44.5202 -109.0238 310° West  Level Estimated
10:20 44.5167 -109.0167 310° West  Level FlightAware Approximate
10:21 44.5202 -109.0238 310° West  Level Estimated
10:22 44.5167 -109.0167 310° West  Level FlightAware Approximate
10:23 44.5202 -109.0238 310° West  Level Estimated
10:24 44.5167 -109.0167 310° West  Level FlightAware Approximate
10:25 44.5202 -109.0238 310° West  Level Estimated
10:26 44.5167 -109.0167 310° West  Level FlightAware Approximate